sensor_id;sensor_type;location;lat;lon;timestamp;P1;durP1;ratioP1;P2;durP2;ratioP2
54384;SDS011;40284;52.878;5.998;2023-04-15T00:00:18;14.30;;;4.80;;
54384;SDS011;40284;52.878;5.998;2023-04-15T00:02:44;7.78;;;4.63;;
54384;SDS011;40284;52.878;5.998;2023-04-15T00:05:10;9.65;;;5.22;;
54384;SDS011;40284;52.878;5.998;2023-04-15T00:07:36;12.32;;;6.25;;
54384;SDS011;40284;52.878;5.998;2023-04-15T00:10:02;19.75;;;8.52;;
54384;SDS011;40284;52.878;5.998;2023-04-15T00:12:29;10.85;;;5.90;;
54384;SDS011;40284;52.878;5.998;2023-04-15T00:14:55;12.00;;;5.45;;
54384;SDS011;40284;52.878;5.998;2023-04-15T00:17:23;8.38;;;4.53;;
54384;SDS011;40284;52.878;5.998;2023-04-15T00:19:49;10.80;;;4.95;;
54384;SDS011;40284;52.878;5.998;2023-04-15T00:22:15;15.60;;;4.97;;
54384;SDS011;40284;52.878;5.998;2023-04-15T00:24:42;10.25;;;5.00;;
54384;SDS011;40284;52.878;5.998;2023-04-15T00:27:08;12.10;;;5.10;;
54384;SDS011;40284;52.878;5.998;2023-04-15T00:29:34;10.30;;;5.15;;
54384;SDS011;40284;52.878;5.998;2023-04-15T00:32:00;7.90;;;4.38;;
54384;SDS011;40284;52.878;5.998;2023-04-15T00:34:26;10.93;;;5.00;;
54384;SDS011;40284;52.878;5.998;2023-04-15T00:36:53;9.15;;;4.53;;
54384;SDS011;40284;52.878;5.998;2023-04-15T00:39:19;9.75;;;5.28;;
54384;SDS011;40284;52.878;5.998;2023-04-15T00:41:45;11.10;;;5.30;;
54384;SDS011;40284;52.878;5.998;2023-04-15T00:44:11;9.90;;;5.50;;
54384;SDS011;40284;52.878;5.998;2023-04-15T00:46:38;11.45;;;5.78;;
54384;SDS011;40284;52.878;5.998;2023-04-15T00:49:05;13.20;;;6.45;;
54384;SDS011;40284;52.878;5.998;2023-04-15T00:51:31;12.13;;;5.20;;
54384;SDS011;40284;52.878;5.998;2023-04-15T00:54:00;9.70;;;5.45;;
54384;SDS011;40284;52.878;5.998;2023-04-15T00:56:26;11.25;;;5.47;;
54384;SDS011;40284;52.878;5.998;2023-04-15T00:58:53;11.68;;;5.78;;
54384;SDS011;40284;52.878;5.998;2023-04-15T01:01:20;11.15;;;4.57;;
54384;SDS011;40284;52.878;5.998;2023-04-15T01:03:49;13.20;;;5.30;;
54384;SDS011;40284;52.878;5.998;2023-04-15T01:06:16;10.80;;;5.50;;
54384;SDS011;40284;52.878;5.998;2023-04-15T01:08:42;13.68;;;5.25;;
54384;SDS011;40284;52.878;5.998;2023-04-15T01:11:09;12.38;;;5.63;;
54384;SDS011;40284;52.878;5.998;2023-04-15T01:13:37;11.38;;;5.00;;
54384;SDS011;40284;52.878;5.998;2023-04-15T01:16:03;10.23;;;5.68;;
54384;SDS011;40284;52.878;5.998;2023-04-15T01:18:30;9.15;;;5.55;;
54384;SDS011;40284;52.878;5.998;2023-04-15T01:20:56;12.45;;;5.72;;
54384;SDS011;40284;52.878;5.998;2023-04-15T01:23:22;13.45;;;5.70;;
54384;SDS011;40284;52.878;5.998;2023-04-15T01:25:49;10.95;;;5.60;;
54384;SDS011;40284;52.878;5.998;2023-04-15T01:28:16;10.45;;;5.75;;
54384;SDS011;40284;52.878;5.998;2023-04-15T01:30:42;7.80;;;4.90;;
54384;SDS011;40284;52.878;5.998;2023-04-15T01:33:08;13.23;;;6.07;;
54384;SDS011;40284;52.878;5.998;2023-04-15T01:35:35;19.42;;;7.22;;
54384;SDS011;40284;52.878;5.998;2023-04-15T01:38:05;15.90;;;5.38;;
54384;SDS011;40284;52.878;5.998;2023-04-15T01:40:31;10.68;;;6.32;;
54384;SDS011;40284;52.878;5.998;2023-04-15T01:42:58;12.05;;;5.47;;
54384;SDS011;40284;52.878;5.998;2023-04-15T01:45:24;11.60;;;6.90;;
54384;SDS011;40284;52.878;5.998;2023-04-15T01:47:50;17.15;;;6.18;;
54384;SDS011;40284;52.878;5.998;2023-04-15T01:50:16;14.23;;;5.60;;
54384;SDS011;40284;52.878;5.998;2023-04-15T01:52:43;15.15;;;6.35;;
54384;SDS011;40284;52.878;5.998;2023-04-15T01:55:09;14.02;;;6.45;;
54384;SDS011;40284;52.878;5.998;2023-04-15T01:57:35;18.58;;;7.03;;
54384;SDS011;40284;52.878;5.998;2023-04-15T02:00:01;11.40;;;6.18;;
54384;SDS011;40284;52.878;5.998;2023-04-15T02:02:28;9.73;;;6.32;;
54384;SDS011;40284;52.878;5.998;2023-04-15T02:04:54;14.48;;;7.18;;
54384;SDS011;40284;52.878;5.998;2023-04-15T02:07:20;14.75;;;6.28;;
54384;SDS011;40284;52.878;5.998;2023-04-15T02:09:47;14.02;;;6.80;;
54384;SDS011;40284;52.878;5.998;2023-04-15T02:12:14;12.70;;;5.47;;
54384;SDS011;40284;52.878;5.998;2023-04-15T02:14:40;16.77;;;7.20;;
54384;SDS011;40284;52.878;5.998;2023-04-15T02:17:06;9.43;;;6.80;;
54384;SDS011;40284;52.878;5.998;2023-04-15T02:19:35;13.43;;;6.80;;
54384;SDS011;40284;52.878;5.998;2023-04-15T02:22:01;15.05;;;7.78;;
54384;SDS011;40284;52.878;5.998;2023-04-15T02:24:28;11.43;;;6.97;;
54384;SDS011;40284;52.878;5.998;2023-04-15T02:26:55;14.02;;;7.07;;
54384;SDS011;40284;52.878;5.998;2023-04-15T02:29:21;15.05;;;7.35;;
54384;SDS011;40284;52.878;5.998;2023-04-15T02:31:47;16.73;;;7.45;;
54384;SDS011;40284;52.878;5.998;2023-04-15T02:34:14;12.32;;;7.20;;
54384;SDS011;40284;52.878;5.998;2023-04-15T02:36:40;11.13;;;7.43;;
54384;SDS011;40284;52.878;5.998;2023-04-15T02:39:06;12.50;;;8.05;;
54384;SDS011;40284;52.878;5.998;2023-04-15T02:41:32;14.13;;;7.32;;
54384;SDS011;40284;52.878;5.998;2023-04-15T02:43:59;11.18;;;7.13;;
54384;SDS011;40284;52.878;5.998;2023-04-15T02:46:25;10.40;;;7.10;;
54384;SDS011;40284;52.878;5.998;2023-04-15T02:48:51;11.88;;;7.72;;
54384;SDS011;40284;52.878;5.998;2023-04-15T02:51:19;15.85;;;8.00;;
54384;SDS011;40284;52.878;5.998;2023-04-15T02:53:48;17.15;;;9.13;;
54384;SDS011;40284;52.878;5.998;2023-04-15T02:56:15;14.40;;;8.18;;
54384;SDS011;40284;52.878;5.998;2023-04-15T02:58:42;15.73;;;8.07;;
54384;SDS011;40284;52.878;5.998;2023-04-15T03:01:09;11.63;;;8.05;;
54384;SDS011;40284;52.878;5.998;2023-04-15T03:03:35;14.15;;;8.20;;
54384;SDS011;40284;52.878;5.998;2023-04-15T03:06:01;13.00;;;8.35;;
54384;SDS011;40284;52.878;5.998;2023-04-15T03:08:27;13.07;;;8.80;;
54384;SDS011;40284;52.878;5.998;2023-04-15T03:10:53;13.30;;;8.52;;
54384;SDS011;40284;52.878;5.998;2023-04-15T03:13:19;18.77;;;9.02;;
54384;SDS011;40284;52.878;5.998;2023-04-15T03:15:46;14.23;;;8.48;;
54384;SDS011;40284;52.878;5.998;2023-04-15T03:18:12;16.25;;;8.90;;
54384;SDS011;40284;52.878;5.998;2023-04-15T03:20:38;16.05;;;9.93;;
54384;SDS011;40284;52.878;5.998;2023-04-15T03:23:04;13.43;;;8.77;;
54384;SDS011;40284;52.878;5.998;2023-04-15T03:25:30;13.50;;;9.95;;
54384;SDS011;40284;52.878;5.998;2023-04-15T03:27:56;15.40;;;9.30;;
54384;SDS011;40284;52.878;5.998;2023-04-15T03:30:22;12.82;;;9.48;;
54384;SDS011;40284;52.878;5.998;2023-04-15T03:32:49;19.40;;;10.77;;
54384;SDS011;40284;52.878;5.998;2023-04-15T03:35:15;17.42;;;10.90;;
54384;SDS011;40284;52.878;5.998;2023-04-15T03:37:41;16.58;;;10.10;;
54384;SDS011;40284;52.878;5.998;2023-04-15T03:40:07;15.50;;;10.50;;
54384;SDS011;40284;52.878;5.998;2023-04-15T03:42:33;17.65;;;10.48;;
54384;SDS011;40284;52.878;5.998;2023-04-15T03:45:00;17.58;;;10.70;;
54384;SDS011;40284;52.878;5.998;2023-04-15T03:47:26;15.00;;;10.65;;
54384;SDS011;40284;52.878;5.998;2023-04-15T03:49:52;16.90;;;10.60;;
54384;SDS011;40284;52.878;5.998;2023-04-15T03:52:18;19.23;;;11.57;;
54384;SDS011;40284;52.878;5.998;2023-04-15T03:54:44;15.98;;;10.98;;
54384;SDS011;40284;52.878;5.998;2023-04-15T03:57:10;18.05;;;11.18;;
54384;SDS011;40284;52.878;5.998;2023-04-15T03:59:36;18.25;;;12.07;;
54384;SDS011;40284;52.878;5.998;2023-04-15T04:02:02;21.55;;;12.23;;
54384;SDS011;40284;52.878;5.998;2023-04-15T04:04:28;18.58;;;12.05;;
54384;SDS011;40284;52.878;5.998;2023-04-15T04:06:54;15.65;;;11.30;;
54384;SDS011;40284;52.878;5.998;2023-04-15T04:09:20;18.77;;;11.63;;
54384;SDS011;40284;52.878;5.998;2023-04-15T04:11:47;14.80;;;10.32;;
54384;SDS011;40284;52.878;5.998;2023-04-15T04:14:13;18.55;;;11.23;;
54384;SDS011;40284;52.878;5.998;2023-04-15T04:16:39;16.70;;;10.85;;
54384;SDS011;40284;52.878;5.998;2023-04-15T04:19:05;17.08;;;11.32;;
54384;SDS011;40284;52.878;5.998;2023-04-15T04:21:31;17.85;;;10.60;;
54384;SDS011;40284;52.878;5.998;2023-04-15T04:23:58;20.83;;;11.48;;
54384;SDS011;40284;52.878;5.998;2023-04-15T04:26:24;15.52;;;11.10;;
54384;SDS011;40284;52.878;5.998;2023-04-15T04:28:51;18.92;;;11.25;;
54384;SDS011;40284;52.878;5.998;2023-04-15T04:31:17;16.00;;;11.40;;
54384;SDS011;40284;52.878;5.998;2023-04-15T04:33:46;18.10;;;12.48;;
54384;SDS011;40284;52.878;5.998;2023-04-15T04:36:12;18.08;;;11.82;;
54384;SDS011;40284;52.878;5.998;2023-04-15T04:38:38;19.63;;;12.25;;
54384;SDS011;40284;52.878;5.998;2023-04-15T04:41:04;18.42;;;11.45;;
54384;SDS011;40284;52.878;5.998;2023-04-15T04:43:30;16.75;;;11.32;;
54384;SDS011;40284;52.878;5.998;2023-04-15T04:45:56;15.82;;;11.30;;
54384;SDS011;40284;52.878;5.998;2023-04-15T04:48:22;18.98;;;12.23;;
54384;SDS011;40284;52.878;5.998;2023-04-15T04:50:48;18.23;;;11.38;;
54384;SDS011;40284;52.878;5.998;2023-04-15T04:53:14;15.45;;;11.52;;
54384;SDS011;40284;52.878;5.998;2023-04-15T04:55:42;19.13;;;12.70;;
54384;SDS011;40284;52.878;5.998;2023-04-15T04:58:08;22.63;;;12.00;;
54384;SDS011;40284;52.878;5.998;2023-04-15T05:00:34;16.83;;;12.15;;
54384;SDS011;40284;52.878;5.998;2023-04-15T05:03:02;20.05;;;12.57;;
54384;SDS011;40284;52.878;5.998;2023-04-15T05:05:28;15.23;;;11.70;;
54384;SDS011;40284;52.878;5.998;2023-04-15T05:07:54;22.92;;;13.50;;
54384;SDS011;40284;52.878;5.998;2023-04-15T05:10:20;18.70;;;12.43;;
54384;SDS011;40284;52.878;5.998;2023-04-15T05:12:46;17.33;;;12.50;;
54384;SDS011;40284;52.878;5.998;2023-04-15T05:15:12;19.77;;;13.15;;
54384;SDS011;40284;52.878;5.998;2023-04-15T05:17:38;16.48;;;13.60;;
54384;SDS011;40284;52.878;5.998;2023-04-15T05:20:04;20.65;;;14.10;;
54384;SDS011;40284;52.878;5.998;2023-04-15T05:22:31;18.42;;;13.75;;
54384;SDS011;40284;52.878;5.998;2023-04-15T05:24:57;21.02;;;13.75;;
54384;SDS011;40284;52.878;5.998;2023-04-15T05:27:23;19.70;;;13.50;;
54384;SDS011;40284;52.878;5.998;2023-04-15T05:29:50;17.70;;;12.02;;
54384;SDS011;40284;52.878;5.998;2023-04-15T05:32:16;19.52;;;13.23;;
54384;SDS011;40284;52.878;5.998;2023-04-15T05:34:42;17.60;;;13.43;;
54384;SDS011;40284;52.878;5.998;2023-04-15T05:37:08;20.60;;;13.35;;
54384;SDS011;40284;52.878;5.998;2023-04-15T05:39:34;21.70;;;14.00;;
54384;SDS011;40284;52.878;5.998;2023-04-15T05:42:00;17.83;;;13.10;;
54384;SDS011;40284;52.878;5.998;2023-04-15T05:44:27;18.73;;;12.98;;
54384;SDS011;40284;52.878;5.998;2023-04-15T05:46:53;18.92;;;13.52;;
54384;SDS011;40284;52.878;5.998;2023-04-15T05:49:19;18.88;;;14.07;;
54384;SDS011;40284;52.878;5.998;2023-04-15T05:51:46;16.17;;;12.70;;
54384;SDS011;40284;52.878;5.998;2023-04-15T05:54:12;17.52;;;13.35;;
54384;SDS011;40284;52.878;5.998;2023-04-15T05:56:38;18.98;;;13.20;;
54384;SDS011;40284;52.878;5.998;2023-04-15T05:59:04;17.77;;;13.48;;
54384;SDS011;40284;52.878;5.998;2023-04-15T06:01:31;20.48;;;14.30;;
54384;SDS011;40284;52.878;5.998;2023-04-15T06:03:58;17.92;;;12.98;;
54384;SDS011;40284;52.878;5.998;2023-04-15T06:06:24;17.48;;;12.50;;
54384;SDS011;40284;52.878;5.998;2023-04-15T06:08:51;18.17;;;13.07;;
54384;SDS011;40284;52.878;5.998;2023-04-15T06:11:18;17.38;;;12.80;;
54384;SDS011;40284;52.878;5.998;2023-04-15T06:13:46;15.35;;;12.02;;
54384;SDS011;40284;52.878;5.998;2023-04-15T06:16:12;16.55;;;12.48;;
54384;SDS011;40284;52.878;5.998;2023-04-15T06:18:38;17.95;;;11.70;;
54384;SDS011;40284;52.878;5.998;2023-04-15T06:21:04;16.40;;;12.60;;
54384;SDS011;40284;52.878;5.998;2023-04-15T06:23:30;17.55;;;13.30;;
54384;SDS011;40284;52.878;5.998;2023-04-15T06:25:58;14.93;;;11.57;;
54384;SDS011;40284;52.878;5.998;2023-04-15T06:28:25;19.45;;;12.05;;
54384;SDS011;40284;52.878;5.998;2023-04-15T06:30:51;14.55;;;10.63;;
54384;SDS011;40284;52.878;5.998;2023-04-15T06:33:17;13.63;;;10.40;;
54384;SDS011;40284;52.878;5.998;2023-04-15T06:35:43;16.13;;;11.55;;
54384;SDS011;40284;52.878;5.998;2023-04-15T06:38:10;13.35;;;9.45;;
54384;SDS011;40284;52.878;5.998;2023-04-15T06:40:36;13.75;;;10.68;;
54384;SDS011;40284;52.878;5.998;2023-04-15T06:43:02;13.65;;;10.43;;
54384;SDS011;40284;52.878;5.998;2023-04-15T06:45:29;14.20;;;10.90;;
54384;SDS011;40284;52.878;5.998;2023-04-15T06:47:55;14.70;;;10.55;;
54384;SDS011;40284;52.878;5.998;2023-04-15T06:50:21;12.82;;;10.30;;
54384;SDS011;40284;52.878;5.998;2023-04-15T06:52:48;18.40;;;10.13;;
54384;SDS011;40284;52.878;5.998;2023-04-15T06:55:14;14.25;;;11.10;;
54384;SDS011;40284;52.878;5.998;2023-04-15T06:57:40;15.02;;;10.80;;
54384;SDS011;40284;52.878;5.998;2023-04-15T07:00:06;14.68;;;10.88;;
54384;SDS011;40284;52.878;5.998;2023-04-15T07:02:32;13.95;;;10.63;;
54384;SDS011;40284;52.878;5.998;2023-04-15T07:04:58;13.65;;;11.07;;
54384;SDS011;40284;52.878;5.998;2023-04-15T07:07:24;17.80;;;11.98;;
54384;SDS011;40284;52.878;5.998;2023-04-15T07:09:50;14.27;;;10.88;;
54384;SDS011;40284;52.878;5.998;2023-04-15T07:12:17;15.57;;;11.38;;
54384;SDS011;40284;52.878;5.998;2023-04-15T07:14:44;15.02;;;12.18;;
54384;SDS011;40284;52.878;5.998;2023-04-15T07:17:10;17.83;;;13.02;;
54384;SDS011;40284;52.878;5.998;2023-04-15T07:19:36;19.27;;;13.60;;
54384;SDS011;40284;52.878;5.998;2023-04-15T07:22:03;17.05;;;11.70;;
54384;SDS011;40284;52.878;5.998;2023-04-15T07:24:29;14.68;;;11.23;;
54384;SDS011;40284;52.878;5.998;2023-04-15T07:26:55;14.15;;;10.85;;
54384;SDS011;40284;52.878;5.998;2023-04-15T07:29:22;15.38;;;10.40;;
54384;SDS011;40284;52.878;5.998;2023-04-15T07:31:48;15.32;;;9.23;;
54384;SDS011;40284;52.878;5.998;2023-04-15T07:34:14;13.02;;;9.77;;
54384;SDS011;40284;52.878;5.998;2023-04-15T07:36:41;11.10;;;8.85;;
54384;SDS011;40284;52.878;5.998;2023-04-15T07:39:07;12.57;;;8.90;;
54384;SDS011;40284;52.878;5.998;2023-04-15T07:41:34;12.10;;;9.00;;
54384;SDS011;40284;52.878;5.998;2023-04-15T07:44:00;12.25;;;8.60;;
54384;SDS011;40284;52.878;5.998;2023-04-15T07:46:26;13.18;;;8.55;;
54384;SDS011;40284;52.878;5.998;2023-04-15T07:48:52;13.38;;;8.45;;
54384;SDS011;40284;52.878;5.998;2023-04-15T07:51:19;12.30;;;8.30;;
54384;SDS011;40284;52.878;5.998;2023-04-15T07:53:45;9.30;;;7.03;;
54384;SDS011;40284;52.878;5.998;2023-04-15T07:56:12;10.63;;;7.72;;
54384;SDS011;40284;52.878;5.998;2023-04-15T07:58:38;13.32;;;7.40;;
54384;SDS011;40284;52.878;5.998;2023-04-15T08:01:04;8.30;;;7.15;;
54384;SDS011;40284;52.878;5.998;2023-04-15T08:03:30;10.65;;;6.75;;
54384;SDS011;40284;52.878;5.998;2023-04-15T08:05:57;9.23;;;7.20;;
54384;SDS011;40284;52.878;5.998;2023-04-15T08:08:23;9.25;;;6.50;;
54384;SDS011;40284;52.878;5.998;2023-04-15T08:10:50;8.98;;;6.90;;
54384;SDS011;40284;52.878;5.998;2023-04-15T08:13:16;9.30;;;6.75;;
54384;SDS011;40284;52.878;5.998;2023-04-15T08:15:43;7.72;;;6.47;;
54384;SDS011;40284;52.878;5.998;2023-04-15T08:18:09;9.52;;;7.18;;
54384;SDS011;40284;52.878;5.998;2023-04-15T08:20:35;11.55;;;7.32;;
54384;SDS011;40284;52.878;5.998;2023-04-15T08:23:01;10.02;;;6.88;;
54384;SDS011;40284;52.878;5.998;2023-04-15T08:25:28;8.13;;;5.97;;
54384;SDS011;40284;52.878;5.998;2023-04-15T08:27:55;8.10;;;6.13;;
54384;SDS011;40284;52.878;5.998;2023-04-15T08:30:21;10.88;;;6.60;;
54384;SDS011;40284;52.878;5.998;2023-04-15T08:32:48;11.50;;;5.47;;
54384;SDS011;40284;52.878;5.998;2023-04-15T08:35:14;6.07;;;4.70;;
54384;SDS011;40284;52.878;5.998;2023-04-15T08:37:40;5.07;;;3.92;;
54384;SDS011;40284;52.878;5.998;2023-04-15T08:40:07;8.63;;;4.50;;
54384;SDS011;40284;52.878;5.998;2023-04-15T08:42:39;9.73;;;4.50;;
54384;SDS011;40284;52.878;5.998;2023-04-15T08:45:07;9.52;;;4.82;;
54384;SDS011;40284;52.878;5.998;2023-04-15T08:47:35;8.27;;;4.50;;
54384;SDS011;40284;52.878;5.998;2023-04-15T08:50:07;8.40;;;5.10;;
54384;SDS011;40284;52.878;5.998;2023-04-15T08:52:34;7.72;;;4.18;;
54384;SDS011;40284;52.878;5.998;2023-04-15T08:55:01;7.68;;;5.32;;
54384;SDS011;40284;52.878;5.998;2023-04-15T08:57:28;8.73;;;4.15;;
54384;SDS011;40284;52.878;5.998;2023-04-15T08:59:55;5.50;;;3.88;;
54384;SDS011;40284;52.878;5.998;2023-04-15T09:02:22;6.30;;;4.50;;
54384;SDS011;40284;52.878;5.998;2023-04-15T09:04:49;6.15;;;3.88;;
54384;SDS011;40284;52.878;5.998;2023-04-15T09:07:15;5.13;;;3.72;;
54384;SDS011;40284;52.878;5.998;2023-04-15T09:09:42;5.93;;;3.58;;
54384;SDS011;40284;52.878;5.998;2023-04-15T09:12:08;6.03;;;3.33;;
54384;SDS011;40284;52.878;5.998;2023-04-15T09:14:35;7.25;;;3.70;;
54384;SDS011;40284;52.878;5.998;2023-04-15T09:17:02;7.65;;;4.57;;
54384;SDS011;40284;52.878;5.998;2023-04-15T09:19:29;5.43;;;4.30;;
54384;SDS011;40284;52.878;5.998;2023-04-15T09:21:58;5.57;;;4.07;;
54384;SDS011;40284;52.878;5.998;2023-04-15T09:24:25;6.22;;;4.00;;
54384;SDS011;40284;52.878;5.998;2023-04-15T09:26:52;5.90;;;4.28;;
54384;SDS011;40284;52.878;5.998;2023-04-15T09:29:23;7.78;;;4.30;;
54384;SDS011;40284;52.878;5.998;2023-04-15T09:31:50;7.88;;;3.92;;
54384;SDS011;40284;52.878;5.998;2023-04-15T09:34:17;7.25;;;3.97;;
54384;SDS011;40284;52.878;5.998;2023-04-15T09:39:15;6.97;;;3.75;;
54384;SDS011;40284;52.878;5.998;2023-04-15T09:41:41;7.90;;;4.10;;
54384;SDS011;40284;52.878;5.998;2023-04-15T09:44:24;6.50;;;3.50;;
54384;SDS011;40284;52.878;5.998;2023-04-15T09:46:50;8.32;;;4.10;;
54384;SDS011;40284;52.878;5.998;2023-04-15T09:49:16;5.75;;;3.17;;
54384;SDS011;40284;52.878;5.998;2023-04-15T09:51:42;6.25;;;3.63;;
54384;SDS011;40284;52.878;5.998;2023-04-15T09:54:08;4.15;;;3.10;;
54384;SDS011;40284;52.878;5.998;2023-04-15T09:56:35;6.63;;;3.75;;
54384;SDS011;40284;52.878;5.998;2023-04-15T09:59:07;7.97;;;4.18;;
54384;SDS011;40284;52.878;5.998;2023-04-15T10:01:34;4.65;;;3.20;;
54384;SDS011;40284;52.878;5.998;2023-04-15T10:04:04;8.45;;;4.03;;
54384;SDS011;40284;52.878;5.998;2023-04-15T10:06:30;6.65;;;4.18;;
54384;SDS011;40284;52.878;5.998;2023-04-15T10:08:57;6.22;;;4.13;;
54384;SDS011;40284;52.878;5.998;2023-04-15T10:11:23;6.53;;;3.88;;
54384;SDS011;40284;52.878;5.998;2023-04-15T10:13:50;8.55;;;3.88;;
54384;SDS011;40284;52.878;5.998;2023-04-15T10:16:18;5.75;;;3.60;;
54384;SDS011;40284;52.878;5.998;2023-04-15T10:18:45;6.40;;;3.30;;
54384;SDS011;40284;52.878;5.998;2023-04-15T10:21:11;4.60;;;2.92;;
54384;SDS011;40284;52.878;5.998;2023-04-15T10:23:39;7.82;;;2.72;;
54384;SDS011;40284;52.878;5.998;2023-04-15T10:26:05;5.53;;;2.15;;
54384;SDS011;40284;52.878;5.998;2023-04-15T10:28:32;4.30;;;2.05;;
54384;SDS011;40284;52.878;5.998;2023-04-15T10:30:58;7.22;;;1.88;;
54384;SDS011;40284;52.878;5.998;2023-04-15T10:33:24;3.60;;;1.60;;
54384;SDS011;40284;52.878;5.998;2023-04-15T10:35:51;2.88;;;1.60;;
54384;SDS011;40284;52.878;5.998;2023-04-15T10:44:05;4.22;;;1.15;;
54384;SDS011;40284;52.878;5.998;2023-04-15T10:46:41;2.92;;;1.23;;
54384;SDS011;40284;52.878;5.998;2023-04-15T10:49:23;5.70;;;1.60;;
54384;SDS011;40284;52.878;5.998;2023-04-15T10:51:53;4.28;;;1.40;;
54384;SDS011;40284;52.878;5.998;2023-04-15T10:56:52;3.05;;;1.38;;
54384;SDS011;40284;52.878;5.998;2023-04-15T10:59:32;2.95;;;1.48;;
54384;SDS011;40284;52.878;5.998;2023-04-15T11:02:01;3.92;;;1.50;;
54384;SDS011;40284;52.878;5.998;2023-04-15T11:05:13;3.78;;;1.30;;
54384;SDS011;40284;52.878;5.998;2023-04-15T11:07:14;1.75;;;1.20;;
54384;SDS011;40284;52.878;5.998;2023-04-15T11:09:40;3.13;;;1.38;;
54384;SDS011;40284;52.878;5.998;2023-04-15T11:12:07;4.35;;;1.40;;
54384;SDS011;40284;52.878;5.998;2023-04-15T11:14:35;5.07;;;1.58;;
54384;SDS011;40284;52.878;5.998;2023-04-15T11:17:04;3.25;;;1.77;;
54384;SDS011;40284;52.878;5.998;2023-04-15T11:19:37;3.28;;;1.80;;
54384;SDS011;40284;52.878;5.998;2023-04-15T11:22:07;3.90;;;1.58;;
54384;SDS011;40284;52.878;5.998;2023-04-15T11:24:33;3.25;;;1.60;;
54384;SDS011;40284;52.878;5.998;2023-04-15T11:27:00;3.72;;;1.40;;
54384;SDS011;40284;52.878;5.998;2023-04-15T11:29:32;4.38;;;1.73;;
54384;SDS011;40284;52.878;5.998;2023-04-15T11:32:08;2.40;;;1.40;;
54384;SDS011;40284;52.878;5.998;2023-04-15T11:34:34;4.60;;;1.50;;
54384;SDS011;40284;52.878;5.998;2023-04-15T11:37:06;4.45;;;1.70;;
54384;SDS011;40284;52.878;5.998;2023-04-15T11:39:32;2.80;;;1.55;;
54384;SDS011;40284;52.878;5.998;2023-04-15T11:41:59;3.15;;;1.25;;
54384;SDS011;40284;52.878;5.998;2023-04-15T11:44:25;6.38;;;1.42;;
54384;SDS011;40284;52.878;5.998;2023-04-15T11:46:51;4.70;;;1.95;;
54384;SDS011;40284;52.878;5.998;2023-04-15T11:49:27;4.53;;;1.88;;
54384;SDS011;40284;52.878;5.998;2023-04-15T11:51:54;4.15;;;1.88;;
54384;SDS011;40284;52.878;5.998;2023-04-15T11:54:20;4.05;;;1.80;;
54384;SDS011;40284;52.878;5.998;2023-04-15T11:56:49;3.40;;;1.80;;
54384;SDS011;40284;52.878;5.998;2023-04-15T11:59:16;5.07;;;1.83;;
54384;SDS011;40284;52.878;5.998;2023-04-15T12:01:42;5.65;;;1.98;;
54384;SDS011;40284;52.878;5.998;2023-04-15T12:04:11;5.35;;;2.20;;
54384;SDS011;40284;52.878;5.998;2023-04-15T12:06:37;6.13;;;1.80;;
54384;SDS011;40284;52.878;5.998;2023-04-15T12:09:07;14.88;;;2.90;;
54384;SDS011;40284;52.878;5.998;2023-04-15T12:11:38;8.10;;;2.38;;
54384;SDS011;40284;52.878;5.998;2023-04-15T12:14:08;6.72;;;1.98;;
54384;SDS011;40284;52.878;5.998;2023-04-15T12:16:35;5.35;;;2.17;;
54384;SDS011;40284;52.878;5.998;2023-04-15T12:19:05;4.85;;;1.90;;
54384;SDS011;40284;52.878;5.998;2023-04-15T12:21:33;6.90;;;2.35;;
54384;SDS011;40284;52.878;5.998;2023-04-15T12:24:01;7.28;;;2.15;;
54384;SDS011;40284;52.878;5.998;2023-04-15T12:26:28;9.50;;;2.50;;
54384;SDS011;40284;52.878;5.998;2023-04-15T12:28:54;10.63;;;3.28;;
54384;SDS011;40284;52.878;5.998;2023-04-15T12:31:21;10.55;;;3.13;;
54384;SDS011;40284;52.878;5.998;2023-04-15T12:33:48;8.43;;;3.03;;
54384;SDS011;40284;52.878;5.998;2023-04-15T12:36:14;6.95;;;2.22;;
54384;SDS011;40284;52.878;5.998;2023-04-15T12:38:40;7.65;;;1.75;;
54384;SDS011;40284;52.878;5.998;2023-04-15T12:41:06;5.28;;;2.03;;
54384;SDS011;40284;52.878;5.998;2023-04-15T12:43:32;3.97;;;1.70;;
54384;SDS011;40284;52.878;5.998;2023-04-15T12:45:58;7.32;;;1.83;;
54384;SDS011;40284;52.878;5.998;2023-04-15T12:48:25;5.35;;;2.25;;
54384;SDS011;40284;52.878;5.998;2023-04-15T12:50:51;8.32;;;2.35;;
54384;SDS011;40284;52.878;5.998;2023-04-15T12:53:17;10.00;;;2.55;;
54384;SDS011;40284;52.878;5.998;2023-04-15T12:55:43;7.38;;;2.38;;
54384;SDS011;40284;52.878;5.998;2023-04-15T12:58:09;8.02;;;2.55;;
54384;SDS011;40284;52.878;5.998;2023-04-15T13:00:36;8.43;;;2.28;;
54384;SDS011;40284;52.878;5.998;2023-04-15T13:03:02;17.13;;;2.67;;
54384;SDS011;40284;52.878;5.998;2023-04-15T13:05:29;8.80;;;1.95;;
54384;SDS011;40284;52.878;5.998;2023-04-15T13:07:55;6.50;;;1.90;;
54384;SDS011;40284;52.878;5.998;2023-04-15T13:10:21;9.05;;;2.25;;
54384;SDS011;40284;52.878;5.998;2023-04-15T13:12:48;8.98;;;2.97;;
54384;SDS011;40284;52.878;5.998;2023-04-15T13:15:17;8.48;;;2.03;;
54384;SDS011;40284;52.878;5.998;2023-04-15T13:17:44;11.00;;;2.22;;
54384;SDS011;40284;52.878;5.998;2023-04-15T13:20:11;7.60;;;1.77;;
54384;SDS011;40284;52.878;5.998;2023-04-15T13:22:37;9.07;;;1.65;;
54384;SDS011;40284;52.878;5.998;2023-04-15T13:25:03;5.43;;;1.50;;
54384;SDS011;40284;52.878;5.998;2023-04-15T13:27:29;6.25;;;2.00;;
54384;SDS011;40284;52.878;5.998;2023-04-15T13:29:55;6.50;;;2.25;;
54384;SDS011;40284;52.878;5.998;2023-04-15T13:32:21;7.55;;;1.50;;
54384;SDS011;40284;52.878;5.998;2023-04-15T13:34:47;9.40;;;2.28;;
54384;SDS011;40284;52.878;5.998;2023-04-15T13:37:14;8.85;;;1.77;;
54384;SDS011;40284;52.878;5.998;2023-04-15T13:39:40;7.22;;;1.65;;
54384;SDS011;40284;52.878;5.998;2023-04-15T13:42:06;11.38;;;2.40;;
54384;SDS011;40284;52.878;5.998;2023-04-15T13:44:32;11.35;;;2.13;;
54384;SDS011;40284;52.878;5.998;2023-04-15T13:46:58;9.15;;;2.25;;
54384;SDS011;40284;52.878;5.998;2023-04-15T13:49:24;8.30;;;1.52;;
54384;SDS011;40284;52.878;5.998;2023-04-15T13:51:50;7.28;;;1.70;;
54384;SDS011;40284;52.878;5.998;2023-04-15T13:54:16;6.63;;;1.92;;
54384;SDS011;40284;52.878;5.998;2023-04-15T13:56:43;9.30;;;2.60;;
54384;SDS011;40284;52.878;5.998;2023-04-15T13:59:09;11.35;;;2.28;;
54384;SDS011;40284;52.878;5.998;2023-04-15T14:01:35;12.27;;;2.33;;
54384;SDS011;40284;52.878;5.998;2023-04-15T14:04:01;10.00;;;2.05;;
54384;SDS011;40284;52.878;5.998;2023-04-15T14:06:27;10.63;;;2.50;;
54384;SDS011;40284;52.878;5.998;2023-04-15T14:08:53;7.03;;;1.92;;
54384;SDS011;40284;52.878;5.998;2023-04-15T14:11:19;11.63;;;2.42;;
54384;SDS011;40284;52.878;5.998;2023-04-15T14:13:46;8.77;;;2.00;;
54384;SDS011;40284;52.878;5.998;2023-04-15T14:16:12;13.13;;;2.40;;
54384;SDS011;40284;52.878;5.998;2023-04-15T14:18:38;10.07;;;2.60;;
54384;SDS011;40284;52.878;5.998;2023-04-15T14:21:04;13.40;;;2.40;;
54384;SDS011;40284;52.878;5.998;2023-04-15T14:23:31;8.98;;;1.98;;
54384;SDS011;40284;52.878;5.998;2023-04-15T14:25:57;10.02;;;2.53;;
54384;SDS011;40284;52.878;5.998;2023-04-15T14:28:23;8.07;;;2.30;;
54384;SDS011;40284;52.878;5.998;2023-04-15T14:30:49;11.30;;;1.95;;
54384;SDS011;40284;52.878;5.998;2023-04-15T14:33:16;10.90;;;2.28;;
54384;SDS011;40284;52.878;5.998;2023-04-15T14:35:42;7.90;;;1.77;;
54384;SDS011;40284;52.878;5.998;2023-04-15T14:38:08;10.90;;;2.13;;
54384;SDS011;40284;52.878;5.998;2023-04-15T14:40:35;13.43;;;2.03;;
54384;SDS011;40284;52.878;5.998;2023-04-15T14:43:01;13.23;;;2.85;;